createdAt,value
2022-08-29T00:01:11.610Z,100246.19
2022-08-29T00:03:39.637Z,100239.41
2022-08-29T00:06:07.984Z,100238.56
2022-08-29T00:08:35.316Z,100240.25
2022-08-29T00:11:02.536Z,100236.03
2022-08-29T00:13:29.936Z,100232.66
2022-08-29T00:15:56.790Z,100230.16
2022-08-29T00:18:23.782Z,100230.16
2022-08-29T00:20:51.324Z,100231.81
2022-08-29T00:23:18.391Z,100228.47
2022-08-29T00:25:45.938Z,100232.72
2022-08-29T00:28:13.272Z,100234.44
2022-08-29T00:30:41.686Z,100243.78
2022-08-29T00:33:09.006Z,100236.97
2022-08-29T00:35:40.637Z,100239.56
2022-08-29T00:38:10.803Z,100231.97
2022-08-29T00:40:51.454Z,100231.16
2022-08-29T00:43:28.843Z,100238.91
2022-08-29T00:46:46.561Z,100238.16
2022-08-29T00:49:24.962Z,100240.81
2022-08-29T00:51:53.566Z,100228.97
2022-08-29T00:54:22.603Z,100232.38
2022-08-29T00:56:53.313Z,100236.72
2022-08-29T00:59:40.988Z,100231.72
2022-08-29T01:02:11.245Z,100238.63
2022-08-29T01:04:39.558Z,100232.75
2022-08-29T01:07:09.196Z,100239.63
2022-08-29T01:09:42.908Z,100241.44
2022-08-29T01:12:16.665Z,100245.84
2022-08-29T01:14:50.261Z,100251.84
2022-08-29T01:17:33.744Z,100251.09
2022-08-29T01:20:20.059Z,100245.22
2022-08-29T01:23:39.092Z,100247.00
2022-08-29T01:26:07.362Z,100241.13
2022-08-29T01:28:45.820Z,100242.88
2022-08-29T01:31:37.261Z,100244.66
2022-08-29T01:34:12.046Z,100249.84
2022-08-29T01:37:03.208Z,100237.94
2022-08-29T01:39:41.540Z,100237.06
2022-08-29T01:42:24.013Z,100239.63
2022-08-29T01:44:58.771Z,100237.97
2022-08-29T01:47:31.807Z,100249.06
2022-08-29T01:49:58.659Z,100249.09
2022-08-29T01:52:25.490Z,100242.41
2022-08-29T01:54:52.362Z,100245.00
2022-08-29T01:57:19.469Z,100251.03
2022-08-29T01:59:47.505Z,100257.00
2022-08-29T02:02:26.463Z,100251.09
2022-08-29T02:04:56.311Z,100251.16
2022-08-29T02:07:25.201Z,100252.88
2022-08-29T02:09:53.173Z,100255.44
2022-08-29T02:12:20.887Z,100254.63
2022-08-29T02:14:50.603Z,100246.09
2022-08-29T02:17:18.015Z,100250.41
2022-08-29T02:19:45.965Z,100252.97
2022-08-29T02:22:13.806Z,100249.56
2022-08-29T02:24:42.019Z,100249.59
2022-08-29T02:27:10.332Z,100252.16
2022-08-29T02:29:38.491Z,100254.75
2022-08-29T02:32:12.950Z,100252.19
2022-08-29T02:34:44.750Z,100248.78
2022-08-29T02:37:15.895Z,100246.31
2022-08-29T02:39:42.812Z,100254.00
2022-08-29T02:42:09.647Z,100254.00
2022-08-29T02:44:37.933Z,100250.69
2022-08-29T02:47:07.557Z,100243.91
2022-08-29T02:49:34.603Z,100231.22
2022-08-29T02:52:04.539Z,100232.09
2022-08-29T02:54:31.313Z,100221.09
2022-08-29T02:56:58.109Z,100223.66
2022-08-29T02:59:24.900Z,100231.34
2022-08-29T03:01:53.551Z,100231.38
2022-08-29T03:04:20.496Z,100234.75
2022-08-29T03:06:47.360Z,100245.81
2022-08-29T03:09:14.218Z,100240.72
2022-08-29T03:11:41.018Z,100248.38
2022-08-29T03:14:08.280Z,100243.28
2022-08-29T03:16:35.170Z,100246.63
2022-08-29T03:19:02.263Z,100235.56
2022-08-29T03:21:29.057Z,100242.38
2022-08-29T03:23:56.505Z,100242.34
2022-08-29T03:26:25.678Z,100242.34
2022-08-29T03:28:52.970Z,100229.59
2022-08-29T03:31:21.474Z,100248.28
2022-08-29T03:33:48.805Z,100232.97
2022-08-29T03:36:15.671Z,100227.00
2022-08-29T03:38:46.457Z,100230.41
2022-08-29T03:41:22.700Z,100234.72
2022-08-29T03:43:49.925Z,100236.44
2022-08-29T03:46:16.815Z,100234.78
2022-08-29T03:48:43.843Z,100220.38
2022-08-29T03:51:10.797Z,100225.47
2022-08-29T03:53:37.573Z,100230.66
2022-08-29T03:56:06.128Z,100220.50
2022-08-29T03:58:34.257Z,100227.44
2022-08-29T04:01:01.878Z,100228.34
2022-08-29T04:03:31.478Z,100215.66
2022-08-29T04:05:59.194Z,100228.50
2022-08-29T04:08:28.164Z,100226.00
2022-08-29T04:10:55.065Z,100222.63
2022-08-29T04:13:21.953Z,100226.06
2022-08-29T04:15:48.762Z,100224.41
2022-08-29T04:18:15.917Z,100230.34
2022-08-29T04:20:48.517Z,100228.69
2022-08-29T04:23:15.797Z,100226.94
2022-08-29T04:25:44.154Z,100238.00
2022-08-29T04:28:14.671Z,100243.06
2022-08-29T04:30:51.852Z,100231.16
2022-08-29T04:33:23.495Z,100229.50
2022-08-29T04:35:52.653Z,100226.09
2022-08-29T04:38:20.510Z,100233.78
2022-08-29T04:40:47.748Z,100244.88
2022-08-29T04:43:14.866Z,100254.22
2022-08-29T04:45:42.333Z,100249.19
2022-08-29T04:48:10.980Z,100248.34
2022-08-29T04:50:38.255Z,100247.56
2022-08-29T04:53:05.199Z,100249.28
2022-08-29T04:55:33.014Z,100261.19
2022-08-29T04:58:00.220Z,100251.03
2022-08-29T05:00:30.314Z,100244.25
2022-08-29T05:02:58.293Z,100245.97
2022-08-29T05:05:25.694Z,100250.22
2022-08-29T05:07:52.511Z,100243.44
2022-08-29T05:10:24.763Z,100248.47
2022-08-29T05:12:51.605Z,100252.72
2022-08-29T05:15:18.674Z,100247.63
2022-08-29T05:17:45.910Z,100252.66
2022-08-29T05:20:13.494Z,100258.63
2022-08-29T05:22:42.137Z,100259.44
2022-08-29T05:25:17.317Z,100250.84
2022-08-29T05:27:45.731Z,100261.03
2022-08-29T05:30:12.638Z,100262.63
2022-08-29T05:32:39.456Z,100263.38
2022-08-29T05:35:06.605Z,100269.22
2022-08-29T05:37:33.787Z,100265.72
2022-08-29T05:40:00.703Z,100270.69
2022-08-29T05:42:27.615Z,100262.03
2022-08-29T05:44:54.465Z,100266.13
2022-08-29T05:47:21.569Z,100263.38
2022-08-29T05:49:50.068Z,100270.81
2022-08-29T05:52:20.848Z,100282.50
2022-08-29T05:54:48.391Z,100286.50
2022-08-29T05:57:19.933Z,100272.56
2022-08-29T05:59:52.805Z,100280.72
2022-08-29T06:02:22.485Z,100275.31
2022-08-29T06:04:49.939Z,100280.06
2022-08-29T06:07:16.721Z,100283.13
2022-08-29T06:09:44.809Z,100282.78
2022-08-29T06:12:15.419Z,100283.28
2022-08-29T06:14:50.585Z,100282.09
2022-08-29T06:17:18.386Z,100289.44
2022-08-29T06:19:45.666Z,100287.47
2022-08-29T06:22:12.898Z,100284.63
2022-08-29T06:24:39.981Z,100281.88
2022-08-29T06:27:12.911Z,100280.00
2022-08-29T06:29:43.289Z,100291.69
2022-08-29T06:32:12.379Z,100301.72
2022-08-29T06:34:39.530Z,100292.09
2022-08-29T06:37:06.438Z,100299.53
2022-08-29T06:39:33.560Z,100305.22
2022-08-29T06:42:00.503Z,100300.66
2022-08-29T06:44:30.712Z,100297.78
2022-08-29T06:46:58.722Z,100307.75
2022-08-29T06:49:26.180Z,100302.34
2022-08-29T06:51:57.661Z,100304.47
2022-08-29T06:54:27.879Z,100306.53
2022-08-29T06:56:56.775Z,100309.16
2022-08-29T06:59:23.627Z,100300.28
2022-08-29T07:01:50.650Z,100292.75
2022-08-29T07:04:20.990Z,100295.19
2022-08-29T07:06:48.921Z,100296.19
2022-08-29T07:09:16.374Z,100285.66
2022-08-29T07:11:43.584Z,100290.34
2022-08-29T07:14:12.025Z,100295.22
2022-08-29T07:16:40.215Z,100280.09
2022-08-29T07:19:08.747Z,100295.94
2022-08-29T07:21:36.856Z,100290.63
2022-08-29T07:24:04.976Z,100289.81
2022-08-29T07:26:36.986Z,100294.38
2022-08-29T07:29:10.081Z,100292.25
2022-08-29T07:31:39.341Z,100292.72
2022-08-29T07:34:07.819Z,100289.53
2022-08-29T07:36:35.512Z,100287.38
2022-08-29T07:39:08.714Z,100288.69
2022-08-29T07:41:37.844Z,100291.66
2022-08-29T07:44:05.465Z,100286.91
2022-08-29T07:46:32.477Z,100283.63
2022-08-29T07:49:00.535Z,100285.09
2022-08-29T07:51:29.099Z,100276.34
2022-08-29T07:53:57.410Z,100286.56
2022-08-29T07:56:28.609Z,100281.00
2022-08-29T07:58:57.962Z,100285.56
2022-08-29T08:01:25.878Z,100287.09
2022-08-29T08:03:54.203Z,100287.09
2022-08-29T08:06:27.353Z,100286.09
2022-08-29T08:08:59.656Z,100287.50
2022-08-29T08:11:27.551Z,100293.19
2022-08-29T08:13:59.924Z,100282.50
2022-08-29T08:16:29.457Z,100286.53
2022-08-29T08:18:57.811Z,100284.81
2022-08-29T08:21:26.353Z,100286.66
2022-08-29T08:23:55.657Z,100292.53
2022-08-29T08:26:23.465Z,100294.41
2022-08-29T08:28:51.788Z,100284.75
2022-08-29T08:31:20.686Z,100297.03
2022-08-29T08:33:48.017Z,100289.78
2022-08-29T08:36:17.695Z,100291.28
2022-08-29T08:38:48.792Z,100291.34
2022-08-29T08:41:27.606Z,100299.28
2022-08-29T08:44:07.054Z,100299.28
2022-08-29T08:46:38.795Z,100291.09
2022-08-29T08:49:16.913Z,100310.16
2022-08-29T08:51:53.076Z,100293.19
2022-08-29T08:54:33.186Z,100303.03
2022-08-29T08:57:12.622Z,100303.13
2022-08-29T08:59:44.456Z,100306.84
2022-08-29T09:02:54.512Z,100310.84
2022-08-29T09:06:12.260Z,100309.81
2022-08-29T09:09:10.229Z,100308.50
2022-08-29T09:12:32.542Z,100311.59
2022-08-29T09:15:22.292Z,100299.38
2022-08-29T09:18:23.857Z,100303.59
2022-08-29T09:20:56.918Z,100308.28
2022-08-29T09:23:54.355Z,100309.91
2022-08-29T09:26:24.155Z,100304.88
2022-08-29T09:28:51.273Z,100314.50
2022-08-29T09:31:22.845Z,100313.28
2022-08-29T09:34:02.480Z,100314.22
2022-08-29T09:36:48.434Z,100304.75
2022-08-29T09:39:28.480Z,100305.72
2022-08-29T09:42:14.001Z,100311.38
2022-08-29T09:44:58.449Z,100306.00
2022-08-29T09:47:29.813Z,100303.94
2022-08-29T09:50:04.985Z,100296.88
2022-08-29T09:52:32.189Z,100303.47
2022-08-29T09:55:24.495Z,100290.22
2022-08-29T09:58:07.789Z,100284.81
2022-08-29T10:00:40.425Z,100290.75
2022-08-29T10:03:18.867Z,100283.03
2022-08-29T10:05:47.753Z,100284.88
2022-08-29T10:09:10.908Z,100279.06
2022-08-29T10:12:12.630Z,100269.50
2022-08-29T10:15:02.271Z,100270.56
2022-08-29T10:18:05.686Z,100276.75
2022-08-29T10:21:18.326Z,100268.88
2022-08-29T10:23:59.828Z,100273.69
2022-08-29T10:27:04.409Z,100270.75
2022-08-29T10:29:39.973Z,100263.31
2022-08-29T10:32:39.580Z,100273.38
2022-08-29T10:35:32.842Z,100272.56
2022-08-29T10:38:10.324Z,100268.75
2022-08-29T10:40:58.480Z,100264.97
2022-08-29T10:43:40.193Z,100263.16
2022-08-29T10:46:43.870Z,100250.88
2022-08-29T10:49:36.514Z,100257.03
2022-08-29T10:52:38.105Z,100242.53
2022-08-29T10:55:18.922Z,100237.28
2022-08-29T10:58:26.359Z,100250.84
2022-08-29T11:01:09.412Z,100251.56
2022-08-29T11:03:48.598Z,100246.69
2022-08-29T11:06:26.707Z,100230.50
2022-08-29T11:09:25.395Z,100236.94
2022-08-29T11:12:23.909Z,100241.22
2022-08-29T11:15:09.228Z,100239.28
2022-08-29T11:17:40.935Z,100229.22
2022-08-29T11:20:19.541Z,100236.78
2022-08-29T11:23:27.571Z,100237.84
2022-08-29T11:25:58.109Z,100232.22
2022-08-29T11:28:52.583Z,100226.56
2022-08-29T11:31:32.435Z,100218.72
2022-08-29T11:34:39.331Z,100228.19
2022-08-29T11:37:23.905Z,100226.47
2022-08-29T11:40:48.807Z,100216.66
2022-08-29T11:43:44.557Z,100220.09
2022-08-29T11:46:53.461Z,100216.75
2022-08-29T11:49:36.997Z,100205.97
2022-08-29T11:52:22.318Z,100198.81
2022-08-29T11:54:59.469Z,100208.25
2022-08-29T11:57:45.695Z,100210.59
2022-08-29T12:00:55.789Z,100200.31
2022-08-29T12:03:44.861Z,100196.16
2022-08-29T12:06:32.883Z,100191.03
2022-08-29T12:09:14.616Z,100186.19
2022-08-29T12:12:10.341Z,100176.41
2022-08-29T12:14:49.195Z,100177.16
2022-08-29T12:17:51.182Z,100173.25
2022-08-29T12:20:35.563Z,100181.81
2022-08-29T12:23:15.778Z,100181.72
2022-08-29T12:25:55.218Z,100182.84
2022-08-29T12:28:59.115Z,100178.81
2022-08-29T12:32:32.594Z,100178.56
2022-08-29T12:35:32.889Z,100174.38
2022-08-29T12:38:42.032Z,100172.13
2022-08-29T12:41:27.493Z,100170.66
2022-08-29T12:44:01.273Z,100164.78
2022-08-29T12:46:34.092Z,100169.88
2022-08-29T12:49:27.520Z,100164.19
2022-08-29T12:52:03.162Z,100163.69
2022-08-29T12:54:46.036Z,100157.13
2022-08-29T12:57:34.609Z,100161.78
2022-08-29T13:00:08.338Z,100161.84
2022-08-29T13:02:38.152Z,100155.22
2022-08-29T13:05:23.407Z,100156.63
2022-08-29T13:08:02.344Z,100156.84
2022-08-29T13:10:30.137Z,100153.50
2022-08-29T13:13:13.873Z,100152.81
2022-08-29T13:15:41.460Z,100157.00
2022-08-29T13:18:16.391Z,100148.56
2022-08-29T13:21:03.176Z,100160.78
2022-08-29T13:24:11.277Z,100153.25
2022-08-29T13:27:06.459Z,100156.81
2022-08-29T13:29:37.730Z,100153.25
2022-08-29T13:32:26.878Z,100137.72
2022-08-29T13:35:06.227Z,100147.41
2022-08-29T13:37:39.082Z,100137.63
2022-08-29T13:40:31.884Z,100135.44
2022-08-29T13:43:01.140Z,100135.31
2022-08-29T13:45:28.810Z,100134.59
2022-08-29T13:48:15.550Z,100135.53
2022-08-29T13:50:42.351Z,100129.59
2022-08-29T13:53:09.311Z,100130.88
2022-08-29T13:55:36.626Z,100125.25
2022-08-29T13:58:04.464Z,100114.47
2022-08-29T14:00:35.384Z,100115.97
2022-08-29T14:03:06.335Z,100109.72
2022-08-29T14:05:35.209Z,100121.19
2022-08-29T14:08:05.524Z,100115.34
2022-08-29T14:10:32.537Z,100121.47
2022-08-29T14:12:59.600Z,100127.69
2022-08-29T14:15:26.674Z,100120.09
2022-08-29T14:17:56.886Z,100120.38
2022-08-29T14:20:42.724Z,100120.09
2022-08-29T14:23:09.669Z,100123.19
2022-08-29T14:25:36.456Z,100110.38
2022-08-29T14:28:04.057Z,100118.31
2022-08-29T14:30:31.037Z,100115.69
2022-08-29T14:32:57.816Z,100121.84
2022-08-29T14:35:26.442Z,100106.72
2022-08-29T14:38:00.195Z,100101.47
2022-08-29T14:40:28.797Z,100095.16
2022-08-29T14:42:57.222Z,100105.91
2022-08-29T14:45:24.360Z,100109.31
2022-08-29T14:47:51.522Z,100103.19
2022-08-29T14:50:18.910Z,100102.25
2022-08-29T14:52:46.065Z,100099.66
2022-08-29T14:55:14.153Z,100100.59
2022-08-29T14:57:49.560Z,100094.56
2022-08-29T15:00:27.937Z,100099.75
2022-08-29T15:02:55.276Z,100093.53
2022-08-29T15:05:22.496Z,100092.56
2022-08-29T15:07:49.986Z,100096.75
2022-08-29T15:13:17.502Z,100087.47
2022-08-29T15:15:44.429Z,100086.22
2022-08-29T15:19:31.595Z,100083.47
2022-08-29T15:21:25.938Z,100075.59
2022-08-29T15:23:53.611Z,100071.84
2022-08-29T15:26:24.142Z,100064.59
2022-08-29T15:28:51.134Z,100059.03
2022-08-29T15:31:18.067Z,100060.16
2022-08-29T15:33:44.907Z,100062.13
2022-08-29T15:36:11.747Z,100046.81
2022-08-29T15:38:38.734Z,100066.88
2022-08-29T15:41:05.749Z,100056.03
2022-08-29T15:43:32.544Z,100070.25
2022-08-29T15:46:02.832Z,100062.09
2022-08-29T15:48:30.940Z,100063.31
2022-08-29T15:51:04.449Z,100067.84
2022-08-29T15:53:31.357Z,100064.63
2022-08-29T15:55:58.562Z,100061.19
2022-08-29T15:58:25.396Z,100068.97
2022-08-29T16:00:56.200Z,100069.25
2022-08-29T16:03:23.132Z,100069.63
2022-08-29T16:05:49.955Z,100062.31
2022-08-29T16:08:17.633Z,100053.19
2022-08-29T16:10:46.427Z,100052.44
2022-08-29T16:13:13.248Z,100053.47
2022-08-29T16:15:40.465Z,100055.34
2022-08-29T16:18:07.532Z,100045.97
2022-08-29T16:20:37.987Z,100051.16
2022-08-29T16:23:05.957Z,100052.09
2022-08-29T16:25:33.938Z,100045.31
2022-08-29T16:28:03.509Z,100043.72
2022-08-29T16:30:33.639Z,100054.31
2022-08-29T16:33:01.634Z,100047.63
2022-08-29T16:35:28.468Z,100057.28
2022-08-29T16:38:02.469Z,100047.91
2022-08-29T16:40:34.232Z,100047.16
2022-08-29T16:43:03.954Z,100049.84
2022-08-29T16:45:32.598Z,100042.97
2022-08-29T16:47:59.837Z,100036.03
2022-08-29T16:50:28.129Z,100035.84
2022-08-29T16:52:55.683Z,100036.75
2022-08-29T16:55:22.672Z,100038.72
2022-08-29T16:58:08.254Z,100035.56
2022-08-29T17:00:35.191Z,100034.25
2022-08-29T17:03:02.700Z,100029.53
2022-08-29T17:05:30.537Z,100029.03
2022-08-29T17:07:57.383Z,100036.44
2022-08-29T17:10:24.126Z,100033.47
2022-08-29T17:12:51.030Z,100039.94
2022-08-29T17:15:17.813Z,100036.09
2022-08-29T17:17:45.210Z,100037.28
2022-08-29T17:20:12.895Z,100033.31
2022-08-29T17:22:39.808Z,100033.56
2022-08-29T17:25:07.682Z,100028.66
2022-08-29T17:27:34.489Z,100036.78
2022-08-29T17:30:03.788Z,100033.66
2022-08-29T17:32:30.975Z,100034.91
2022-08-29T17:34:57.744Z,100024.06
2022-08-29T17:37:24.540Z,100024.47
2022-08-29T17:39:51.390Z,100030.84
2022-08-29T17:42:18.198Z,100038.13
2022-08-29T17:44:46.853Z,100036.63
2022-08-29T17:47:13.694Z,100035.28
2022-08-29T17:49:40.602Z,100028.69
2022-08-29T17:52:07.703Z,100029.03
2022-08-29T17:54:34.862Z,100031.84
2022-08-29T17:57:02.090Z,100039.94
2022-08-29T17:59:34.476Z,100035.84
2022-08-29T18:02:02.705Z,100032.00
2022-08-29T18:04:29.741Z,100028.16
2022-08-29T18:06:57.811Z,100035.25
2022-08-29T18:09:25.517Z,100033.25
2022-08-29T18:11:54.362Z,100034.75
2022-08-29T18:14:24.077Z,100037.25
2022-08-29T18:17:05.838Z,100037.81
2022-08-29T18:19:34.902Z,100033.03
2022-08-29T18:22:02.324Z,100035.94
2022-08-29T18:24:29.179Z,100025.94
2022-08-29T18:26:56.036Z,100036.53
2022-08-29T18:29:32.682Z,100032.56
2022-08-29T18:32:00.876Z,100028.69
2022-08-29T18:34:30.489Z,100030.72
2022-08-29T18:37:23.230Z,100038.25
2022-08-29T18:39:50.832Z,100041.13
2022-08-29T18:42:40.082Z,100037.16
2022-08-29T18:45:09.178Z,100035.03
2022-08-29T18:47:37.165Z,100037.81
2022-08-29T18:50:26.017Z,100033.78
2022-08-29T18:53:04.443Z,100041.84
2022-08-29T18:55:56.316Z,100045.69
2022-08-29T18:58:33.500Z,100047.56
2022-08-29T19:01:12.124Z,100033.38
2022-08-29T19:03:40.240Z,100040.34
2022-08-29T19:06:07.464Z,100042.94
2022-08-29T19:08:38.067Z,100037.00
2022-08-29T19:11:13.797Z,100039.72
2022-08-29T19:13:41.577Z,100051.13
2022-08-29T19:16:17.433Z,100040.06
2022-08-29T19:18:48.521Z,100051.38
2022-08-29T19:21:16.247Z,100044.78
2022-08-29T19:23:51.957Z,100053.50
2022-08-29T19:26:52.531Z,100063.34
2022-08-29T19:29:19.682Z,100060.03
2022-08-29T19:31:46.655Z,100061.09
2022-08-29T19:34:13.842Z,100068.13
2022-08-29T19:36:42.916Z,100056.34
2022-08-29T19:39:13.934Z,100059.13
2022-08-29T19:41:40.681Z,100054.94
2022-08-29T19:44:09.085Z,100050.88
2022-08-29T19:46:41.205Z,100054.44
2022-08-29T19:49:20.268Z,100055.50
2022-08-29T19:52:00.439Z,100059.03
2022-08-29T19:54:29.102Z,100048.00
2022-08-29T19:57:24.557Z,100045.56
2022-08-29T19:59:57.435Z,100049.19
2022-08-29T20:02:26.930Z,100060.34
2022-08-29T20:04:54.395Z,100057.03
2022-08-29T20:07:21.425Z,100057.03
2022-08-29T20:09:49.188Z,100053.66
2022-08-29T20:12:16.259Z,100058.81
2022-08-29T20:14:43.355Z,100068.31
2022-08-29T20:17:11.651Z,100076.06
2022-08-29T20:19:39.622Z,100075.19
2022-08-29T20:22:07.154Z,100081.25
2022-08-29T20:24:34.871Z,100074.44
2022-08-29T20:27:03.442Z,100075.28
2022-08-29T20:29:31.919Z,100074.44
2022-08-29T20:32:17.711Z,100073.47
2022-08-29T20:34:45.282Z,100070.94
2022-08-29T20:37:14.115Z,100072.69
2022-08-29T20:39:46.405Z,100073.59
2022-08-29T20:42:21.338Z,100069.41
2022-08-29T20:44:48.519Z,100065.16
2022-08-29T20:47:19.710Z,100063.56
2022-08-29T20:49:49.151Z,100068.75
2022-08-29T20:52:19.808Z,100074.97
2022-08-29T20:54:47.868Z,100058.03
2022-08-29T20:57:15.104Z,100062.50
2022-08-29T20:59:42.971Z,100068.63
2022-08-29T21:02:10.932Z,100067.00
2022-08-29T21:04:57.440Z,100064.50
2022-08-29T21:07:25.477Z,100067.31
2022-08-29T21:10:07.988Z,100067.31
2022-08-29T21:12:37.822Z,100071.72
2022-08-29T21:15:05.900Z,100075.22
2022-08-29T21:17:36.332Z,100084.63
2022-08-29T21:20:04.294Z,100084.63
2022-08-29T21:22:34.895Z,100082.81
2022-08-29T21:25:02.796Z,100075.97
2022-08-29T21:27:30.838Z,100076.81
2022-08-29T21:29:58.667Z,100062.16
2022-08-29T21:32:29.232Z,100062.94
2022-08-29T21:34:56.068Z,100063.91
2022-08-29T21:37:24.450Z,100059.59
2022-08-29T21:39:51.266Z,100069.91
2022-08-29T21:42:18.375Z,100072.47
2022-08-29T21:44:45.188Z,100079.47
2022-08-29T21:47:14.824Z,100078.69
2022-08-29T21:49:44.437Z,100072.72
2022-08-29T21:52:11.363Z,100073.66
2022-08-29T21:54:38.154Z,100062.56
2022-08-29T21:57:05.128Z,100068.81
2022-08-29T21:59:32.585Z,100065.59
2022-08-29T22:01:59.433Z,100068.31
2022-08-29T22:04:28.430Z,100069.31
2022-08-29T22:06:57.478Z,100067.00
2022-08-29T22:09:25.548Z,100069.69
2022-08-29T22:11:52.304Z,100069.81
2022-08-29T22:14:19.121Z,100077.69
2022-08-29T22:16:45.963Z,100067.41
2022-08-29T22:19:16.670Z,100063.22
2022-08-29T22:21:51.749Z,100071.00
2022-08-29T22:24:18.924Z,100068.59
2022-08-29T22:26:46.627Z,100072.91
2022-08-29T22:29:15.884Z,100074.59
2022-08-29T22:31:44.718Z,100077.16
2022-08-29T22:34:14.744Z,100086.59
2022-08-29T22:36:41.872Z,100081.50
2022-08-29T22:39:10.166Z,100077.22
2022-08-29T22:41:37.602Z,100072.97
2022-08-29T22:46:54.139Z,100075.69
2022-08-29T22:49:21.207Z,100084.25
2022-08-29T22:51:48.928Z,100078.19
2022-08-29T22:54:34.399Z,100077.31
2022-08-29T22:57:04.395Z,100072.16
2022-08-29T22:59:32.386Z,100071.28
2022-08-29T23:02:01.277Z,100069.50
2022-08-29T23:04:29.941Z,100071.19
2022-08-29T23:06:57.423Z,100067.81
2022-08-29T23:09:24.522Z,100061.84
2022-08-29T23:11:51.819Z,100064.56
2022-08-29T23:14:20.810Z,100061.31
2022-08-29T23:16:48.604Z,100059.72
2022-08-29T23:19:16.048Z,100058.31
2022-08-29T23:21:43.695Z,100055.84
2022-08-29T23:24:10.471Z,100057.78
2022-08-29T23:26:37.384Z,100062.13
2022-08-29T23:29:05.147Z,100057.16
2022-08-29T23:31:32.201Z,100053.06
2022-08-29T23:33:58.994Z,100051.59
2022-08-29T23:36:25.835Z,100047.53
2022-08-29T23:38:52.847Z,100065.78
2022-08-29T23:41:20.019Z,100059.16
2022-08-29T23:43:46.774Z,100067.91
2022-08-29T23:46:13.635Z,100064.69
2022-08-29T23:48:40.656Z,100071.78
2022-08-29T23:51:10.761Z,100067.66
2022-08-29T23:53:38.441Z,100071.31
2022-08-29T23:56:17.116Z,100061.31
2022-08-29T23:58:43.872Z,100069.31
